Time;durP1;ratioP1;P1;durP2;ratioP2;P2;SDS_P1;SDS_P2;PMS_P1;PMS_P2;Temp;Humidity;BMP_temperature;BMP_pressure;BME280_temperature;BME280_humidity;BME280_pressure;Samples;Min_cycle;Max_cycle;Signal;HPM_P1;HPM_P2
2022/08/25 00:01:53;;;;;;;2.63;2.43;;;;;;;23.33;42.01;101738.56;4949433;28;97327;-49
2022/08/25 00:04:20;;;;;;;2.80;2.43;;;;;;;23.31;41.71;101731.97;4956350;28;96896;-49
2022/08/25 00:06:46;;;;;;;3.60;2.90;;;;;;;23.27;41.96;101735.16;4949362;28;96908;-49
2022/08/25 00:09:14;;;;;;;2.37;2.27;;;;;;;23.25;41.95;101732.16;4950018;28;97441;-49
2022/08/25 00:11:41;;;;;;;2.70;2.50;;;;;;;23.22;42.20;101730.44;4946245;28;97840;-49
2022/08/25 00:14:10;;;;;;;3.17;2.87;;;;;;;23.20;42.12;101735.16;4950586;28;97099;-49
2022/08/25 00:16:36;;;;;;;2.77;2.50;;;;;;;23.16;42.23;101731.91;4949278;28;97131;-49
2022/08/25 00:19:06;;;;;;;2.80;2.50;;;;;;;23.13;42.51;101734.53;4950085;28;98561;-48
2022/08/25 00:21:32;;;;;;;2.77;2.57;;;;;;;23.11;42.26;101736.38;4953570;28;96882;-48
2022/08/25 00:23:58;;;;;;;3.40;2.20;;;;;;;23.08;42.66;101748.75;4949720;28;96994;-48
2022/08/25 00:26:25;;;;;;;3.40;2.83;;;;;;;23.02;42.51;101742.53;4951829;28;98111;-48
2022/08/25 00:28:52;;;;;;;5.00;2.47;;;;;;;23.01;42.54;101744.59;4951689;28;98349;-48
2022/08/25 00:31:20;;;;;;;2.80;2.60;;;;;;;23.02;42.76;101750.97;4952655;28;97089;-50
2022/08/25 00:33:46;;;;;;;2.67;2.53;;;;;;;22.99;42.70;101741.59;4946748;28;96876;-49
2022/08/25 00:36:13;;;;;;;3.00;2.70;;;;;;;22.97;42.87;101751.88;4949614;28;96868;-48
2022/08/25 00:38:40;;;;;;;2.63;2.43;;;;;;;22.93;42.84;101740.97;4954409;28;97281;-48
2022/08/25 00:41:07;;;;;;;2.93;2.73;;;;;;;22.86;42.96;101738.91;4947449;28;97241;-49
2022/08/25 00:43:55;;;;;;;3.83;2.40;;;;;;;22.82;43.91;101734.94;4947527;28;97142;-48
2022/08/25 00:46:26;;;;;;;2.60;2.40;;;;;;;22.82;43.28;101737.75;4949900;28;97641;-48
2022/08/25 00:48:58;;;;;;;2.50;2.30;;;;;;;22.78;43.66;101734.53;4952571;28;97700;-48
2022/08/25 00:51:52;;;;;;;2.30;2.20;;;;;;;22.75;43.87;101735.63;4944040;28;97164;-49
2022/08/25 00:54:23;;;;;;;2.90;2.60;;;;;;;22.72;43.52;101729.06;4945244;28;97184;-49
2022/08/25 00:56:50;;;;;;;3.17;2.80;;;;;;;22.71;43.38;101729.63;4950665;28;96969;-48
2022/08/25 00:59:19;;;;;;;3.27;3.07;;;;;;;22.68;43.64;101737.09;4952342;28;98769;-48
2022/08/25 01:01:45;;;;;;;3.60;2.33;;;;;;;22.64;43.63;101736.69;4956926;28;97174;-49
2022/08/25 01:04:11;;;;;;;2.93;2.70;;;;;;;22.59;43.84;101734.78;4946727;28;97318;-49
2022/08/25 01:06:40;;;;;;;3.00;2.83;;;;;;;22.56;43.94;101729.50;4948440;28;97208;-49
2022/08/25 01:09:06;;;;;;;4.00;3.20;;;;;;;22.56;43.93;101729.50;4950313;28;97195;-48
2022/08/25 01:11:33;;;;;;;4.10;2.70;;;;;;;22.55;44.11;101737.16;4946376;28;97325;-49
2022/08/25 01:14:05;;;;;;;2.30;2.20;;;;;;;22.56;44.13;101735.13;4947235;28;96833;-49
2022/08/25 01:16:32;;;;;;;2.70;2.60;;;;;;;22.56;44.16;101740.72;4952692;28;97600;-49
2022/08/25 01:18:59;;;;;;;3.57;2.60;;;;;;;22.54;44.27;101732.13;4950056;28;97470;-48
2022/08/25 01:21:26;;;;;;;3.27;2.97;;;;;;;22.55;44.36;101739.97;4955594;28;97494;-49
2022/08/25 01:23:57;;;;;;;3.50;3.20;;;;;;;22.54;44.52;101732.13;4956208;28;96994;-48
2022/08/25 01:26:23;;;;;;;2.80;2.60;;;;;;;;;;4950655;28;98742;-48
2022/08/25 01:31:35;;;;;;;2.80;2.60;;;;;;;22.48;44.80;101734.28;4944787;28;97112;-49
2022/08/25 01:34:02;;;;;;;3.87;3.00;;;;;;;22.45;44.82;101736.16;4947090;28;97036;-49
2022/08/25 01:36:29;;;;;;;3.60;3.30;;;;;;;22.40;44.98;101728.63;4941199;28;97515;-49
2022/08/25 01:38:55;;;;;;;3.20;3.00;;;;;;;22.37;45.00;101729.72;4948085;28;97270;-48
2022/08/25 01:41:43;;;;;;;3.43;3.13;;;;;;;22.35;46.17;101727.47;4954094;28;97011;-49
2022/08/25 01:44:09;;;;;;;3.10;2.90;;;;;;;22.34;45.03;101731.56;4941598;28;97327;-48
2022/08/25 01:46:34;;;;;;;5.80;2.97;;;;;;;22.35;45.12;101732.34;4947422;28;97425;-49
2022/08/25 01:49:03;;;;;;;3.73;3.40;;;;;;;22.34;45.47;101730.84;4953634;28;97240;-49
2022/08/25 01:51:36;;;;;;;3.20;3.00;;;;;;;22.32;45.58;101725.75;4946833;28;96913;-49
2022/08/25 01:54:01;;;;;;;3.20;2.90;;;;;;;22.29;45.30;101729.69;4947946;28;99159;-49
2022/08/25 01:56:27;;;;;;;4.90;3.30;;;;;;;22.26;45.45;101727.97;4955243;28;97465;-49
2022/08/25 01:58:52;;;;;;;3.43;3.00;;;;;;;22.27;45.51;101726.69;4954433;28;97050;-49
2022/08/25 02:01:20;;;;;;;3.80;3.10;;;;;;;22.27;45.80;101731.53;4949728;28;98186;-49
2022/08/25 02:03:48;;;;;;;5.13;3.17;;;;;;;22.27;45.76;101725.91;4958530;28;97162;-49
2022/08/25 02:06:22;;;;;;;3.60;3.30;;;;;;;22.25;46.43;101722.91;4954269;28;97399;-49
2022/08/25 02:08:57;;;;;;;3.43;3.13;;;;;;;22.19;46.61;101736.34;4950718;28;97363;-49
2022/08/25 02:11:24;;;;;;;3.87;3.00;;;;;;;22.15;46.17;101719.84;4947421;28;97223;-48
2022/08/25 02:13:53;;;;;;;3.47;3.17;;;;;;;22.14;46.17;101723.94;4948651;28;97640;-48
2022/08/25 02:16:24;;;;;;;3.80;3.50;;;;;;;22.12;46.52;101723.75;4954233;28;96873;-48
2022/08/25 02:18:50;;;;;;;3.27;3.07;;;;;;;22.11;46.29;101722.25;4956124;28;98434;-49
2022/08/25 02:21:16;;;;;;;4.07;3.20;;;;;;;22.11;46.43;101721.47;4957537;28;96869;-49
2022/08/25 02:23:42;;;;;;;3.47;3.20;;;;;;;22.08;46.48;101726.13;4956548;28;96747;-49
2022/08/25 02:26:08;;;;;;;5.27;3.13;;;;;;;22.06;46.65;101722.38;4958315;28;96858;-49
2022/08/25 02:28:34;;;;;;;3.57;3.27;;;;;;;22.05;46.81;101718.81;4953357;28;97399;-49
2022/08/25 02:31:00;;;;;;;3.97;3.67;;;;;;;22.03;46.88;101723.47;4947258;28;97077;-48
2022/08/25 02:33:25;;;;;;;3.30;3.10;;;;;;;22.01;46.97;101720.47;4956114;28;97449;-49
2022/08/25 02:35:51;;;;;;;4.47;3.60;;;;;;;21.98;46.98;101718.75;4955922;28;97406;-48
2022/08/25 02:38:17;;;;;;;3.97;3.67;;;;;;;21.94;46.92;101712.72;4954847;28;96860;-49
2022/08/25 02:40:42;;;;;;;4.47;4.00;;;;;;;21.93;47.26;101714.78;4955759;28;97257;-49
2022/08/25 02:43:08;;;;;;;3.90;3.60;;;;;;;21.90;47.22;101718.69;4951933;28;96785;-49
2022/08/25 02:45:33;;;;;;;3.77;3.30;;;;;;;21.90;47.30;101715.13;4951054;28;97310;-48
2022/08/25 02:47:59;;;;;;;4.10;3.80;;;;;;;21.84;47.37;101718.03;4951255;28;96792;-50
2022/08/25 02:50:25;;;;;;;4.20;3.90;;;;;;;21.84;47.55;101709.63;4954267;28;96958;-48
2022/08/25 02:52:51;;;;;;;3.47;3.27;;;;;;;21.83;47.57;101707.41;4947635;28;96824;-50
2022/08/25 02:55:17;;;;;;;3.90;3.60;;;;;;;21.78;47.71;101711.81;4949365;28;98656;-51
2022/08/25 02:57:43;;;;;;;4.60;4.07;;;;;;;21.77;47.98;101715.91;4956994;28;97549;-49
2022/08/25 03:00:11;;;;;;;5.13;4.63;;;;;;;21.76;48.02;101708.78;4950373;28;97125;-48
2022/08/25 03:02:36;;;;;;;3.97;3.60;;;;;;;21.75;47.94;101723.34;4956311;28;97160;-49
2022/08/25 03:05:03;;;;;;;4.33;4.00;;;;;;;21.73;48.19;101718.31;4956291;28;98732;-50
2022/08/25 03:07:29;;;;;;;4.13;3.83;;;;;;;21.71;48.20;101725.75;4952406;28;97473;-48
2022/08/25 03:09:54;;;;;;;4.53;4.13;;;;;;;21.69;48.42;101705.94;4950734;28;97036;-49
2022/08/25 03:12:21;;;;;;;4.33;4.03;;;;;;;21.67;48.49;101710.00;4952458;28;97414;-49
2022/08/25 03:14:46;;;;;;;4.70;4.40;;;;;;;21.61;48.69;101703.81;4955016;28;96942;-49
2022/08/25 03:17:12;;;;;;;4.50;4.13;;;;;;;21.58;48.74;101720.91;4958003;28;97226;-49
2022/08/25 03:19:37;;;;;;;5.17;4.70;;;;;;;21.58;48.87;101706.91;4960096;28;96989;-48
2022/08/25 03:22:03;;;;;;;5.27;4.50;;;;;;;21.57;48.96;101700.59;4957554;28;97209;-49
2022/08/25 03:24:28;;;;;;;5.07;4.63;;;;;;;21.56;49.00;101710.28;4950511;28;97230;-49
2022/08/25 03:26:57;;;;;;;5.10;4.57;;;;;;;21.57;49.09;101705.44;4954009;28;97234;-48
2022/08/25 03:29:24;;;;;;;4.17;3.83;;;;;;;21.56;49.30;101709.50;4953257;28;97154;-49
2022/08/25 03:31:52;;;;;;;5.30;4.83;;;;;;;21.54;49.45;101704.47;4947134;28;97210;-50
2022/08/25 03:34:18;;;;;;;4.90;4.60;;;;;;;21.51;49.36;101702.00;4949078;28;97307;-49
2022/08/25 03:36:46;;;;;;;4.40;4.10;;;;;;;21.49;49.45;101708.13;4954064;28;97219;-49
2022/08/25 03:39:12;;;;;;;5.33;4.90;;;;;;;21.46;49.52;101702.88;4947447;28;96801;-48
2022/08/25 03:41:38;;;;;;;4.40;4.10;;;;;;;21.43;49.60;101717.97;4956763;28;97044;-49
2022/08/25 03:44:06;;;;;;;4.43;4.00;;;;;;;21.43;49.56;101709.56;4960024;28;97360;-49
2022/08/25 03:46:38;;;;;;;5.20;4.80;;;;;;;21.42;50.35;101710.88;4952055;28;101597;-49
2022/08/25 03:49:05;;;;;;;5.50;5.10;;;;;;;21.40;49.79;101708.63;4954328;28;96966;-49
2022/08/25 03:51:34;;;;;;;4.13;3.83;;;;;;;21.40;49.93;101702.25;4937059;28;97084;-49
2022/08/25 03:54:02;;;;;;;5.50;5.10;;;;;;;21.37;49.99;101700.53;4948670;28;97783;-49
2022/08/25 03:56:28;;;;;;;5.00;4.60;;;;;;;21.32;50.09;101702.16;4945381;28;97023;-49
2022/08/25 03:58:54;;;;;;;5.50;5.00;;;;;;;21.31;50.19;101694.31;4950374;28;97390;-49
2022/08/25 04:01:20;;;;;;;5.30;4.80;;;;;;;21.31;50.33;101697.88;4953671;28;97322;-54
2022/08/25 04:03:46;;;;;;;5.30;4.80;;;;;;;21.30;50.45;101695.59;4952232;28;97806;-49
2022/08/25 04:06:12;;;;;;;10.53;5.03;;;;;;;21.28;50.71;101706.59;4948684;28;97598;-50
2022/08/25 04:08:38;;;;;;;5.63;5.10;;;;;;;21.26;50.68;101689.56;4940085;28;97226;-50
2022/08/25 04:11:16;;;;;;;6.77;5.17;;;;;;;21.24;51.59;101695.72;4945945;28;97226;-50
2022/08/25 04:13:44;;;;;;;5.27;4.80;;;;;;;21.21;50.69;101699.59;4947428;28;97926;-50
2022/08/25 04:16:13;;;;;;;5.80;5.30;;;;;;;21.20;51.02;101700.16;4949071;28;96953;-50
2022/08/25 04:18:39;;;;;;;5.30;4.80;;;;;;;21.19;51.07;101704.22;4938247;28;97686;-50
2022/08/25 04:21:07;;;;;;;5.27;4.87;;;;;;;21.18;51.07;101708.34;4948950;28;97019;-50
2022/08/25 04:23:33;;;;;;;5.93;5.40;;;;;;;21.15;51.05;101712.22;4950090;28;100394;-50
2022/08/25 04:25:58;;;;;;;5.63;5.00;;;;;;;21.11;51.39;101706.94;4954517;28;97025;-49
2022/08/25 04:28:24;;;;;;;6.07;5.03;;;;;;;21.09;51.17;101712.34;4951564;28;96798;-50
2022/08/25 04:30:49;;;;;;;5.70;5.20;;;;;;;21.08;51.54;101705.22;4944264;28;96726;-50
2022/08/25 04:33:14;;;;;;;5.77;5.30;;;;;;;21.06;51.56;101701.44;4945671;28;97481;-50
2022/08/25 04:35:45;;;;;;;5.57;5.10;;;;;;;21.01;51.56;101699.50;4944349;28;101375;-50
2022/08/25 04:38:10;;;;;;;5.93;5.37;;;;;;;21.02;51.78;101706.59;4951876;28;97032;-50
2022/08/25 04:40:36;;;;;;;6.17;5.57;;;;;;;21.02;51.83;101701.00;4958733;28;96836;-50
2022/08/25 04:43:01;;;;;;;6.13;5.63;;;;;;;21.03;51.90;101705.31;4952857;28;97011;-50
2022/08/25 04:45:26;;;;;;;6.17;5.67;;;;;;;21.03;51.94;101702.53;4953285;28;97050;-49
2022/08/25 04:47:52;;;;;;;7.27;5.20;;;;;;;21.03;52.00;101699.72;4940119;28;96970;-49
2022/08/25 04:50:17;;;;;;;6.00;5.50;;;;;;;21.02;52.00;101701.00;4947688;28;96988;-49
2022/08/25 04:52:43;;;;;;;5.67;5.17;;;;;;;21.02;52.05;101701.75;4944877;28;101929;-49
2022/08/25 04:55:08;;;;;;;6.07;5.50;;;;;;;21.04;52.19;101695.66;4952510;28;97128;-49
2022/08/25 04:57:33;;;;;;;5.40;4.90;;;;;;;21.07;52.33;101697.38;4949414;28;97049;-50
2022/08/25 04:59:59;;;;;;;6.10;5.50;;;;;;;21.10;52.25;101687.91;4952775;28;96783;-49
2022/08/25 05:02:24;;;;;;;6.03;5.40;;;;;;;21.11;52.25;101692.19;4953187;28;98442;-49
2022/08/25 05:04:50;;;;;;;5.23;4.73;;;;;;;21.13;52.33;101695.97;4947747;28;98426;-50
2022/08/25 05:07:16;;;;;;;6.07;5.47;;;;;;;21.13;52.58;101689.59;4947573;28;103075;-49
2022/08/25 05:09:41;;;;;;;5.63;5.13;;;;;;;21.15;52.53;101693.38;4949547;28;96955;-49
2022/08/25 05:12:07;;;;;;;5.20;4.70;;;;;;;21.18;52.49;101695.09;4949563;28;97903;-49
2022/08/25 05:14:32;;;;;;;7.23;5.63;;;;;;;21.19;52.74;101704.22;4947293;28;98479;-50
2022/08/25 05:16:58;;;;;;;5.90;5.00;;;;;;;21.20;52.89;101702.94;4952641;28;97034;-49
2022/08/25 05:19:25;;;;;;;7.70;5.80;;;;;;;21.24;52.66;101706.16;4951046;28;97296;-49
2022/08/25 05:21:51;;;;;;;6.10;5.60;;;;;;;21.26;52.69;101701.53;4949747;28;97396;-49
2022/08/25 05:24:16;;;;;;;6.43;5.83;;;;;;;21.31;52.92;101705.50;4958101;28;97453;-49
2022/08/25 05:26:41;;;;;;;7.23;6.10;;;;;;;21.33;52.90;101702.91;4949029;28;98757;-49
2022/08/25 05:29:09;;;;;;;5.83;5.37;;;;;;;21.35;52.98;101701.09;4947448;28;97305;-49
2022/08/25 05:31:35;;;;;;;6.33;5.73;;;;;;;21.40;53.09;101705.06;4947103;28;98762;-49
2022/08/25 05:34:05;;;;;;;5.50;5.00;;;;;;;21.43;53.35;101695.56;4947367;28;97696;-49
2022/08/25 05:36:31;;;;;;;5.20;4.80;;;;;;;21.44;53.18;101692.22;4952609;28;98111;-49
2022/08/25 05:38:56;;;;;;;5.87;5.33;;;;;;;21.49;53.03;101707.41;4958967;28;97252;-49
2022/08/25 05:41:27;;;;;;;7.23;4.63;;;;;;;21.53;53.42;101694.56;4955305;28;97316;-49
2022/08/25 05:43:52;;;;;;;5.00;4.60;;;;;;;21.57;53.40;101694.22;4952069;28;98535;-49
2022/08/25 05:46:19;;;;;;;5.93;5.43;;;;;;;21.60;53.45;101688.28;4950051;28;97249;-49
2022/08/25 05:48:45;;;;;;;7.07;5.20;;;;;;;21.66;53.41;101690.97;4948396;28;97510;-49
2022/08/25 05:51:13;;;;;;;5.73;5.30;;;;;;;21.71;53.41;101692.13;4945661;28;97704;-49
2022/08/25 05:53:41;;;;;;;5.40;4.83;;;;;;;21.75;53.61;101692.53;4951662;28;98667;-50
2022/08/25 05:56:07;;;;;;;5.10;4.70;;;;;;;21.82;53.65;101689.06;4955454;28;97433;-50
2022/08/25 05:58:33;;;;;;;5.40;4.90;;;;;;;21.89;53.70;101694.75;4959077;28;96975;-49
2022/08/25 06:02:39;;;;;;;6.20;4.87;;;;;;;21.97;53.71;101692.78;4958466;28;97354;-49
2022/08/25 06:03:49;;;;;;;5.30;4.87;;;;;;;22.06;53.72;101686.69;4959607;28;101544;-49
2022/08/25 06:06:15;;;;;;;5.30;4.87;;;;;;;22.12;54.07;101687.31;4955703;28;97125;-50
2022/08/25 06:08:42;;;;;;;4.87;4.57;;;;;;;22.22;54.11;101684.75;4950917;28;97014;-51
2022/08/25 06:11:07;;;;;;;4.87;4.53;;;;;;;22.31;53.99;101692.69;4943851;28;97531;-49
2022/08/25 06:13:33;;;;;;;5.87;5.27;;;;;;;22.38;54.05;101683.56;4947093;28;98143;-49
2022/08/25 06:15:59;;;;;;;4.27;3.97;;;;;;;22.48;54.18;101678.19;4948763;28;96890;-49
2022/08/25 06:18:24;;;;;;;5.07;4.57;;;;;;;22.53;54.29;101671.69;4952359;28;96831;-49
2022/08/25 06:20:50;;;;;;;6.90;5.33;;;;;;;22.59;54.24;101672.28;4961125;28;98367;-49
2022/08/25 06:23:17;;;;;;;5.27;4.87;;;;;;;22.64;54.57;101677.03;4949850;28;96983;-49
2022/08/25 06:25:48;;;;;;;5.23;4.80;;;;;;;22.73;55.12;101668.09;4948695;28;97178;-49
2022/08/25 06:28:14;;;;;;;4.93;4.53;;;;;;;22.80;54.46;101675.81;4947593;28;97599;-49
2022/08/25 06:30:39;;;;;;;5.00;4.57;;;;;;;22.88;54.54;101680.16;4942381;28;97208;-50
2022/08/25 06:33:04;;;;;;;4.70;4.40;;;;;;;22.95;54.54;101675.88;4950389;28;98413;-50
2022/08/25 06:35:30;;;;;;;5.13;4.67;;;;;;;22.98;54.63;101674.75;4952254;28;97511;-49
2022/08/25 06:37:55;;;;;;;6.27;5.27;;;;;;;23.05;54.55;101688.84;4958533;28;98030;-50
2022/08/25 06:40:21;;;;;;;6.37;4.73;;;;;;;23.14;54.56;101693.19;4953410;28;97008;-49
2022/08/25 06:42:48;;;;;;;8.90;4.97;;;;;;;23.24;54.66;101688.53;4952693;28;97797;-49
2022/08/25 06:45:13;;;;;;;5.80;5.27;;;;;;;23.33;54.75;101687.25;4954952;28;97313;-50
2022/08/25 06:47:39;;;;;;;5.20;4.13;;;;;;;23.39;54.69;101685.06;4954819;28;97245;-49
2022/08/25 06:50:05;;;;;;;4.83;4.50;;;;;;;23.46;54.74;101682.25;4943398;28;97423;-49
2022/08/25 06:52:30;;;;;;;5.17;4.70;;;;;;;23.53;55.08;101680.78;4940583;28;97483;-49
2022/08/25 06:54:56;;;;;;;4.70;4.40;;;;;;;23.60;54.77;101686.41;4951630;28;97073;-50
2022/08/25 06:57:21;;;;;;;5.37;4.97;;;;;;;23.67;54.98;101682.88;4951871;28;96878;-50
2022/08/25 06:59:47;;;;;;;6.37;5.10;;;;;;;23.75;55.15;101686.44;4953261;28;97524;-50
2022/08/25 07:02:12;;;;;;;6.43;5.17;;;;;;;23.83;54.97;101680.81;4957724;28;97294;-49
2022/08/25 07:04:37;;;;;;;6.93;5.40;;;;;;;23.90;55.07;101674.44;4949529;28;98778;-50
2022/08/25 07:07:03;;;;;;;5.57;4.57;;;;;;;23.98;54.92;101663.22;4943203;28;96897;-50
2022/08/25 07:09:28;;;;;;;6.83;5.20;;;;;;;24.08;55.00;101667.75;4942950;28;97170;-50
2022/08/25 07:11:54;;;;;;;10.70;4.83;;;;;;;24.17;54.81;101666.41;4945378;28;97784;-49
2022/08/25 07:14:19;;;;;;;5.10;4.60;;;;;;;24.26;54.65;101675.06;4950198;28;97482;-50
2022/08/25 07:16:45;;;;;;;5.17;4.67;;;;;;;24.37;54.52;101677.47;4952065;28;97397;-50
2022/08/25 07:19:11;;;;;;;6.00;5.50;;;;;;;24.51;54.36;101675.19;4953758;28;97319;-50
2022/08/25 07:21:39;;;;;;;4.80;4.30;;;;;;;24.58;54.42;101672.34;4955065;28;97079;-49
2022/08/25 07:24:10;;;;;;;6.03;5.00;;;;;;;24.66;54.60;101672.31;4949031;28;97031;-50
2022/08/25 07:26:36;;;;;;;7.73;4.90;;;;;;;24.73;54.24;101663.13;4949472;28;96975;-49
2022/08/25 07:29:04;;;;;;;4.90;4.50;;;;;;;24.84;54.40;101664.78;4948667;28;97799;-50
2022/08/25 07:31:29;;;;;;;5.93;4.80;;;;;;;24.95;54.42;101667.19;4948238;28;97138;-50
2022/08/25 07:36:38;;;;;;;5.23;4.80;;;;;;;25.14;53.98;101670.31;4951926;28;97333;-49
2022/08/25 07:39:04;;;;;;;6.33;4.60;;;;;;;25.27;54.09;101662.34;4947372;28;97431;-50
2022/08/25 07:41:40;;;;;;;5.23;4.77;;;;;;;25.41;53.83;101667.72;4952282;28;98502;-49
2022/08/25 07:44:06;;;;;;;4.80;4.40;;;;;;;25.53;53.69;101666.75;4947285;28;97155;-50
2022/08/25 07:46:32;;;;;;;4.90;4.50;;;;;;;25.64;53.61;101660.63;4941840;28;97029;-49
2022/08/25 07:48:58;;;;;;;8.30;4.70;;;;;;;25.78;53.27;101673.13;4945323;28;97294;-49
2022/08/25 07:51:24;;;;;;;5.17;4.57;;;;;;;25.87;53.33;101666.88;4941586;28;97309;-50
2022/08/25 07:53:49;;;;;;;7.77;5.07;;;;;;;25.97;52.89;101675.44;4944188;28;98178;-50
2022/08/25 07:56:15;;;;;;;5.33;4.83;;;;;;;26.10;52.84;101678.00;4950417;28;97170;-50
2022/08/25 07:58:42;;;;;;;5.20;4.73;;;;;;;26.19;52.89;101668.84;4954703;28;96913;-50
2022/08/25 08:01:22;;;;;;;5.10;4.57;;;;;;;26.31;53.06;101669.13;4948383;28;97130;-50
2022/08/25 08:03:48;;;;;;;5.57;5.07;;;;;;;26.43;52.61;101675.81;4946831;28;97047;-50
2022/08/25 08:06:16;;;;;;;4.90;4.50;;;;;;;26.53;52.55;101671.72;4945938;28;96949;-50
2022/08/25 08:08:44;;;;;;;5.00;4.50;;;;;;;26.68;52.13;101671.56;4941907;28;97587;-49
2022/08/25 08:11:27;;;;;;;7.30;4.60;;;;;;;26.80;52.74;101677.47;4944091;28;98977;-50
2022/08/25 08:13:54;;;;;;;5.57;4.70;;;;;;;26.92;51.82;101678.47;4953068;28;104411;-50
2022/08/25 08:16:21;;;;;;;5.90;4.93;;;;;;;27.06;51.64;101682.44;4951517;28;96957;-50
2022/08/25 08:18:47;;;;;;;5.00;4.57;;;;;;;27.18;51.53;101679.84;4950801;28;97173;-50
2022/08/25 08:21:18;;;;;;;6.10;4.97;;;;;;;27.31;51.41;101677.38;4956759;28;97273;-50
2022/08/25 08:23:44;;;;;;;5.33;4.83;;;;;;;27.44;51.26;101676.28;4953316;28;96846;-49
2022/08/25 08:26:10;;;;;;;5.07;4.70;;;;;;;27.57;50.87;101667.44;4947543;28;97798;-50
2022/08/25 08:28:35;;;;;;;4.90;4.50;;;;;;;27.71;50.68;101660.06;4938591;28;100451;-50
2022/08/25 08:31:01;;;;;;;7.43;5.07;;;;;;;27.85;50.67;101663.25;4948069;28;98016;-50
2022/08/25 08:33:27;;;;;;;5.70;5.10;;;;;;;27.96;50.29;101657.75;4951574;28;96858;-50
2022/08/25 08:36:11;;;;;;;4.67;4.27;;;;;;;28.11;50.24;101659.63;4949457;28;97956;-49
2022/08/25 08:38:38;;;;;;;5.40;5.00;;;;;;;28.23;49.84;101654.09;4947908;28;97020;-50
2022/08/25 08:44:11;;;;;;;5.30;4.80;;;;;;;28.42;49.70;101660.53;4945043;28;97036;-50
2022/08/25 08:46:45;;;;;;;5.40;5.00;;;;;;;28.55;49.29;101645.94;4947848;28;96844;-47
2022/08/25 08:49:24;;;;;;;5.30;4.80;;;;;;;28.74;49.36;101650.91;4938795;28;97495;-47
2022/08/25 08:51:58;;;;;;;4.70;4.30;;;;;;;28.88;49.03;101646.25;4940935;28;97465;-47
2022/08/25 08:54:24;;;;;;;5.40;4.90;;;;;;;29.01;48.51;101647.88;4949260;28;96963;-47
2022/08/25 08:56:57;;;;;;;6.37;5.50;;;;;;;29.10;48.50;101647.09;4944170;28;97395;-47
2022/08/25 08:59:28;;;;;;;5.20;4.70;;;;;;;29.20;48.30;101647.88;4951828;28;98910;-49
2022/08/25 09:02:01;;;;;;;5.53;4.97;;;;;;;29.21;47.77;101630.25;4949124;28;97227;-50
2022/08/25 09:04:34;;;;;;;5.77;4.90;;;;;;;29.26;48.13;101637.69;4952187;28;97080;-50
2022/08/25 09:07:03;;;;;;;6.70;4.33;;;;;;;29.46;47.86;101636.28;4950931;28;97135;-49
2022/08/25 09:09:33;;;;;;;4.87;4.37;;;;;;;29.59;47.27;101627.28;4935256;28;96971;-50
2022/08/25 09:12:14;;;;;;;5.00;4.50;;;;;;;29.70;46.74;101640.06;4942160;28;97344;-50
2022/08/25 09:14:58;;;;;;;4.63;4.20;;;;;;;29.81;46.88;101630.94;4945519;28;97205;-49
2022/08/25 09:17:52;;;;;;;8.63;4.77;;;;;;;29.85;46.34;101628.38;4947357;28;97188;-50
2022/08/25 09:20:42;;;;;;;5.33;4.10;;;;;;;29.65;46.46;101624.84;4955265;28;102443;-50
2022/08/25 09:23:38;;;;;;;3.80;3.43;;;;;;;29.70;46.70;101623.03;4948219;28;100147;-50
2022/08/25 09:26:35;;;;;;;4.07;3.67;;;;;;;29.77;46.42;101622.16;4932651;28;97456;-50
2022/08/25 09:29:09;;;;;;;4.00;3.70;;;;;;;29.93;46.54;101617.56;4942259;28;97254;-50
2022/08/25 09:31:40;;;;;;;5.60;3.80;;;;;;;30.13;45.44;101615.31;4948263;28;101330;-51
2022/08/25 09:34:32;;;;;;;4.80;4.40;;;;;;;30.13;44.82;101612.50;4951640;28;103576;-51
2022/08/25 09:36:59;;;;;;;4.23;3.73;;;;;;;30.17;45.31;101618.44;4950677;28;97267;-50
2022/08/25 09:39:24;;;;;;;3.83;3.40;;;;;;;30.18;45.40;101617.09;4951039;28;97585;-50
2022/08/25 09:41:59;;;;;;;3.83;3.53;;;;;;;30.14;44.95;101617.56;4948305;28;97509;-48
2022/08/25 09:44:30;;;;;;;8.30;3.80;;;;;;;30.12;45.19;101622.38;4944940;28;97518;-48
2022/08/25 09:47:17;;;;;;;3.77;3.47;;;;;;;30.26;44.40;101603.44;4947456;28;97378;-48
2022/08/25 09:49:48;;;;;;;4.10;3.50;;;;;;;30.43;44.59;101597.47;4949004;28;97293;-48
2022/08/25 09:52:21;;;;;;;7.43;4.53;;;;;;;30.46;44.02;101601.94;4956371;28;97554;-47
2022/08/25 09:54:49;;;;;;;4.23;3.93;;;;;;;30.54;44.28;101596.78;4940434;28;97311;-49
2022/08/25 09:57:27;;;;;;;4.00;3.30;;;;;;;30.60;43.69;101596.44;4945158;28;97226;-47
2022/08/25 09:59:52;;;;;;;6.87;3.77;;;;;;;30.68;44.18;101583.50;4948858;28;97193;-47
2022/08/25 10:02:28;;;;;;;4.77;3.83;;;;;;;30.67;43.13;101601.91;4953204;28;98200;-48
2022/08/25 10:04:55;;;;;;;4.60;3.80;;;;;;;30.74;43.53;101598.09;4945060;28;97555;-48
2022/08/25 10:07:36;;;;;;;3.87;3.57;;;;;;;30.87;43.23;101602.47;4941417;28;97295;-47
2022/08/25 10:10:15;;;;;;;3.93;3.63;;;;;;;30.90;43.47;101602.00;4945545;28;97043;-47
2022/08/25 10:12:43;;;;;;;6.17;4.30;;;;;;;30.92;43.26;101599.28;4946911;28;101872;-48
2022/08/25 10:15:27;;;;;;;4.90;3.77;;;;;;;30.79;42.86;101591.31;4952544;28;100191;-47
2022/08/25 10:17:53;;;;;;;3.37;3.10;;;;;;;30.82;43.25;101595.03;4950766;28;97164;-49
2022/08/25 10:20:24;;;;;;;4.07;3.43;;;;;;;30.92;43.04;101587.16;4953478;28;96927;-47
2022/08/25 10:22:50;;;;;;;4.60;3.77;;;;;;;30.92;42.99;101584.34;4951774;28;102923;-47
2022/08/25 10:25:30;;;;;;;5.40;3.67;;;;;;;30.92;42.59;101581.50;4953687;28;97681;-48
2022/08/25 10:28:11;;;;;;;4.03;3.50;;;;;;;31.04;42.71;101593.59;4945119;28;97190;-48
2022/08/25 10:31:02;;;;;;;3.40;3.20;;;;;;;31.17;41.70;101580.91;4948913;28;97022;-48
2022/08/25 10:34:05;;;;;;;3.40;3.20;;;;;;;31.09;42.26;101578.28;4958747;28;101622;-49
2022/08/25 10:37:03;;;;;;;3.07;2.70;;;;;;;31.02;42.06;101562.97;4956391;28;101744;-48
2022/08/25 10:39:53;;;;;;;3.73;3.37;;;;;;;31.13;42.21;101561.47;4957306;28;97251;-49
2022/08/25 10:42:32;;;;;;;4.37;3.40;;;;;;;31.19;42.39;101563.97;4956037;28;96856;-47
2022/08/25 10:47:57;;;;;;;4.57;3.40;;;;;;;31.51;42.24;101537.53;4938334;28;101440;-48
2022/08/25 10:50:42;;;;;;;4.70;3.30;;;;;;;31.51;41.54;101520.44;4947253;28;97562;-49
2022/08/25 10:53:19;;;;;;;4.50;3.57;;;;;;;31.43;41.92;101534.91;4952072;28;97450;-48
2022/08/25 10:56:23;;;;;;;3.53;3.33;;;;;;;31.30;41.74;101517.72;4950212;28;102474;-48
2022/08/25 10:59:15;;;;;;;4.67;3.57;;;;;;;31.37;40.91;101513.88;4953056;28;100005;-48
2022/08/25 11:02:12;;;;;;;7.20;4.47;;;;;;;31.48;41.26;101521.69;4949405;28;97403;-48
2022/08/25 11:05:09;;;;;;;5.00;4.07;;;;;;;31.65;41.35;101515.59;4944610;28;97408;-48
2022/08/25 11:07:40;;;;;;;5.47;4.03;;;;;;;31.91;41.39;101510.69;4941194;28;104701;-47
2022/08/25 11:10:12;;;;;;;4.67;4.27;;;;;;;32.15;41.16;101512.84;4949564;28;97329;-48
2022/08/25 11:12:41;;;;;;;5.40;4.00;;;;;;;32.31;40.69;101510.16;4947959;28;97087;-48
2022/08/25 11:15:25;;;;;;;4.67;4.27;;;;;;;32.27;40.01;101513.53;4951645;28;99500;-48
2022/08/25 11:18:01;;;;;;;4.43;3.90;;;;;;;32.31;40.35;101505.22;4955039;28;102172;-48
2022/08/25 11:20:51;;;;;;;4.63;4.23;;;;;;;32.34;39.96;101506.81;4954595;28;96678;-48
2022/08/25 11:23:36;;;;;;;4.50;4.10;;;;;;;32.22;40.29;101506.13;4952074;28;98382;-48
2022/08/25 11:26:09;;;;;;;4.23;3.90;;;;;;;32.33;40.23;101488.25;4947908;28;97402;-48
2022/08/25 11:28:50;;;;;;;5.17;3.90;;;;;;;32.56;39.43;101478.09;4943373;28;97291;-48
2022/08/25 11:31:17;;;;;;;3.53;3.33;;;;;;;32.75;39.76;101469.16;4942656;28;100230;-48
2022/08/25 11:33:43;;;;;;;3.87;3.57;;;;;;;32.91;39.51;101475.75;4943817;28;97794;-49
2022/08/25 11:36:30;;;;;;;4.33;3.80;;;;;;;33.02;38.99;101474.94;4949878;28;97142;-48
2022/08/25 11:39:16;;;;;;;4.03;3.37;;;;;;;33.21;38.79;101458.13;4953753;28;101806;-48
2022/08/25 11:41:54;;;;;;;3.80;3.50;;;;;;;33.43;38.53;101464.25;4948825;28;101603;-47
2022/08/25 11:44:45;;;;;;;3.77;3.47;;;;;;;33.69;38.09;101464.84;4953918;28;97500;-48
2022/08/25 11:47:29;;;;;;;3.47;3.20;;;;;;;33.87;37.53;101462.91;4940780;28;97344;-49
2022/08/25 11:50:06;;;;;;;4.40;3.40;;;;;;;34.07;37.76;101458.19;4944081;28;96900;-48